Time;durP1;ratioP1;P1;durP2;ratioP2;P2;SDS_P1;SDS_P2;PMS_P1;PMS_P2;Temp;Humidity;BMP_temperature;BMP_pressure;BME280_temperature;BME280_humidity;BME280_pressure;Samples;Min_cycle;Max_cycle;Signal;HPM_P1;HPM_P2
2021/09/17 00:00:11;;;;;;;8.70;6.05;;;;;;;;;;5092586;28;20028;-77
2021/09/17 00:02:37;;;;;;;6.85;5.88;;;;;;;;;;5093924;28;20030;-78
2021/09/17 00:05:03;;;;;;;7.63;5.78;;;;;;;;;;5093886;28;20099;-78
2021/09/17 00:07:29;;;;;;;10.00;5.90;;;;;;;;;;5093791;28;20085;-78
2021/09/17 00:09:55;;;;;;;9.10;6.55;;;;;;;;;;5092524;28;20032;-78
2021/09/17 00:12:21;;;;;;;12.05;7.03;;;;;;;;;;5092205;28;20035;-77
2021/09/17 00:14:47;;;;;;;8.90;6.93;;;;;;;;;;5093124;28;20566;-77
2021/09/17 00:17:13;;;;;;;9.35;6.35;;;;;;;;;;5093136;28;20070;-78
2021/09/17 00:19:39;;;;;;;14.52;6.88;;;;;;;;;;5092257;28;20036;-78
2021/09/17 00:22:05;;;;;;;7.63;6.32;;;;;;;;;;5093052;28;20027;-77
2021/09/17 00:24:32;;;;;;;11.32;7.10;;;;;;;;;;5092791;28;20024;-78
2021/09/17 00:26:58;;;;;;;9.60;6.68;;;;;;;;;;5091826;28;20531;-78
2021/09/17 00:29:24;;;;;;;7.15;6.40;;;;;;;;;;5092193;28;20039;-78
2021/09/17 00:31:51;;;;;;;7.47;6.10;;;;;;;;;;5093080;28;20032;-78
2021/09/17 00:34:17;;;;;;;8.50;6.63;;;;;;;;;;5092854;28;20036;-78
2021/09/17 00:36:43;;;;;;;9.82;6.60;;;;;;;;;;5092700;28;20027;-78
2021/09/17 00:39:13;;;;;;;7.63;5.85;;;;;;;;;;5091687;28;20032;-78
2021/09/17 00:41:39;;;;;;;11.23;6.20;;;;;;;;;;5093919;28;20099;-77
2021/09/17 00:44:05;;;;;;;8.13;5.47;;;;;;;;;;5094158;28;20024;-77
2021/09/17 00:46:31;;;;;;;10.98;6.45;;;;;;;;;;5092598;28;20556;-77
2021/09/17 00:48:57;;;;;;;25.60;6.90;;;;;;;;;;5092873;28;20066;-78
2021/09/17 00:51:23;;;;;;;7.18;5.55;;;;;;;;;;5092774;28;20035;-77
2021/09/17 00:53:49;;;;;;;10.13;7.10;;;;;;;;;;5093204;28;20032;-78
2021/09/17 00:56:16;;;;;;;9.38;6.45;;;;;;;;;;5092896;28;20024;-77
2021/09/17 00:58:41;;;;;;;10.45;6.28;;;;;;;;;;5092032;28;20508;-78
2021/09/17 01:01:07;;;;;;;9.30;5.97;;;;;;;;;;5092279;28;20029;-78
2021/09/17 01:03:33;;;;;;;7.68;5.90;;;;;;;;;;5091809;28;20050;-78
2021/09/17 01:06:01;;;;;;;8.18;6.68;;;;;;;;;;5092542;28;20472;-78
2021/09/17 01:08:27;;;;;;;8.52;7.15;;;;;;;;;;5092781;28;20028;-78
2021/09/17 01:10:53;;;;;;;7.47;6.35;;;;;;;;;;5079328;28;20105;-77
2021/09/17 01:13:21;;;;;;;10.07;7.70;;;;;;;;;;5074458;28;20082;-77
2021/09/17 01:15:47;;;;;;;8.52;6.60;;;;;;;;;;5074312;28;20020;-77
2021/09/17 01:18:13;;;;;;;12.45;6.90;;;;;;;;;;5082351;28;20062;-78
2021/09/17 01:20:39;;;;;;;12.40;6.93;;;;;;;;;;5092199;28;20032;-78
2021/09/17 01:23:05;;;;;;;12.63;6.40;;;;;;;;;;5093974;28;20055;-77
2021/09/17 01:25:31;;;;;;;8.40;6.60;;;;;;;;;;5095009;28;20024;-77
2021/09/17 01:27:58;;;;;;;9.57;6.30;;;;;;;;;;5093935;28;20074;-77
2021/09/17 01:30:24;;;;;;;9.00;6.57;;;;;;;;;;5091354;28;20035;-77
2021/09/17 01:32:50;;;;;;;9.70;6.82;;;;;;;;;;5092038;28;20154;-77
2021/09/17 01:35:18;;;;;;;10.52;5.97;;;;;;;;;;5092064;28;20039;-77
2021/09/17 01:37:44;;;;;;;16.90;7.45;;;;;;;;;;5091928;28;20051;-77
2021/09/17 01:40:10;;;;;;;11.10;7.00;;;;;;;;;;5091091;28;20039;-77
2021/09/17 01:42:36;;;;;;;9.82;7.10;;;;;;;;;;5092154;28;20107;-78
2021/09/17 01:45:03;;;;;;;14.98;8.73;;;;;;;;;;5091664;28;20477;-77
2021/09/17 01:47:29;;;;;;;15.93;9.45;;;;;;;;;;5091520;28;20028;-77
2021/09/17 01:49:55;;;;;;;13.20;8.88;;;;;;;;;;5090921;28;20032;-77
2021/09/17 01:52:21;;;;;;;11.00;8.23;;;;;;;;;;5091779;28;20423;-77
2021/09/17 01:54:47;;;;;;;9.95;8.35;;;;;;;;;;5091554;28;20059;-78
2021/09/17 01:57:13;;;;;;;12.13;9.18;;;;;;;;;;5092032;28;20027;-78
2021/09/17 01:59:39;;;;;;;12.48;8.38;;;;;;;;;;5091841;28;20111;-77
2021/09/17 02:02:06;;;;;;;13.27;8.25;;;;;;;;;;5092502;28;20055;-78
2021/09/17 02:04:32;;;;;;;11.80;8.82;;;;;;;;;;5092392;28;20440;-77
2021/09/17 02:06:58;;;;;;;10.50;8.25;;;;;;;;;;5092285;28;20052;-78
2021/09/17 02:09:24;;;;;;;10.55;8.73;;;;;;;;;;5091052;28;20085;-78
2021/09/17 02:11:50;;;;;;;12.95;9.25;;;;;;;;;;5092719;28;20115;-78
2021/09/17 02:14:16;;;;;;;14.65;9.05;;;;;;;;;;5093092;28;20043;-78
2021/09/17 02:16:42;;;;;;;15.63;9.00;;;;;;;;;;5096607;28;20508;-78
2021/09/17 02:19:08;;;;;;;13.15;10.23;;;;;;;;;;5095820;28;20036;-78
2021/09/17 02:21:34;;;;;;;14.88;9.75;;;;;;;;;;5096375;28;20030;-78
2021/09/17 02:24:00;;;;;;;9.75;8.15;;;;;;;;;;5096066;28;20430;-78
2021/09/17 02:26:26;;;;;;;13.07;8.63;;;;;;;;;;5096121;28;20063;-78
2021/09/17 02:28:52;;;;;;;15.45;9.57;;;;;;;;;;5095843;28;20052;-78
2021/09/17 02:31:18;;;;;;;16.90;9.80;;;;;;;;;;5096804;28;20110;-78
2021/09/17 02:33:44;;;;;;;14.07;9.68;;;;;;;;;;5096457;28;20032;-78
2021/09/17 02:36:10;;;;;;;13.65;8.18;;;;;;;;;;5095278;28;20028;-77
2021/09/17 02:38:36;;;;;;;13.75;9.15;;;;;;;;;;5094431;28;20036;-77
2021/09/17 02:41:03;;;;;;;10.10;8.55;;;;;;;;;;5094019;28;20025;-78
2021/09/17 02:43:29;;;;;;;13.57;8.73;;;;;;;;;;5094614;28;20488;-77
2021/09/17 02:45:55;;;;;;;15.88;9.27;;;;;;;;;;5094904;28;20084;-78
2021/09/17 02:48:22;;;;;;;15.15;9.70;;;;;;;;;;5094779;28;20027;-78
2021/09/17 02:50:48;;;;;;;13.02;8.60;;;;;;;;;;5094112;28;20469;-78
2021/09/17 02:53:14;;;;;;;15.02;8.52;;;;;;;;;;5094458;28;20035;-78
2021/09/17 02:55:40;;;;;;;12.30;8.93;;;;;;;;;;5094326;28;20434;-77
2021/09/17 02:58:06;;;;;;;11.85;9.20;;;;;;;;;;5094510;28;20024;-78
2021/09/17 03:00:32;;;;;;;12.00;9.10;;;;;;;;;;5093860;28;20031;-78
2021/09/17 03:02:58;;;;;;;12.93;9.32;;;;;;;;;;5094594;28;20020;-78
2021/09/17 03:05:24;;;;;;;16.98;9.52;;;;;;;;;;5094660;28;20039;-77
2021/09/17 03:07:50;;;;;;;14.55;10.07;;;;;;;;;;5095580;28;20032;-78
2021/09/17 03:10:16;;;;;;;22.67;10.93;;;;;;;;;;5094902;28;20028;-77
2021/09/17 03:12:42;;;;;;;15.25;9.55;;;;;;;;;;5095073;28;20031;-78
2021/09/17 03:15:09;;;;;;;12.93;8.95;;;;;;;;;;5094336;28;20103;-77
2021/09/17 03:17:35;;;;;;;13.75;9.35;;;;;;;;;;5094813;28;20028;-77
2021/09/17 03:20:01;;;;;;;13.27;9.15;;;;;;;;;;5093360;28;20072;-78
2021/09/17 03:22:27;;;;;;;17.05;9.48;;;;;;;;;;5094237;28;20032;-78
2021/09/17 03:24:53;;;;;;;10.43;8.27;;;;;;;;;;5096547;28;20031;-78
2021/09/17 03:27:19;;;;;;;13.48;10.02;;;;;;;;;;5101482;28;20036;-78
2021/09/17 03:29:45;;;;;;;11.63;9.45;;;;;;;;;;5102690;28;20032;-78
2021/09/17 03:32:11;;;;;;;12.07;9.52;;;;;;;;;;5099454;28;20078;-78
2021/09/17 03:34:37;;;;;;;14.32;9.23;;;;;;;;;;5098181;28;20067;-78
2021/09/17 03:37:03;;;;;;;18.38;9.63;;;;;;;;;;5099111;28;20039;-78
2021/09/17 03:39:29;;;;;;;20.00;9.60;;;;;;;;;;5099449;28;20035;-78
2021/09/17 03:41:55;;;;;;;16.98;9.63;;;;;;;;;;5099140;28;20043;-78
2021/09/17 03:44:22;;;;;;;20.70;10.85;;;;;;;;;;5100662;28;20031;-78
2021/09/17 03:46:48;;;;;;;11.57;9.13;;;;;;;;;;5100658;28;20039;-78
2021/09/17 03:49:14;;;;;;;14.63;9.90;;;;;;;;;;5103970;28;20107;-78
2021/09/17 03:51:40;;;;;;;13.95;10.07;;;;;;;;;;5105853;28;20028;-78
2021/09/17 03:54:06;;;;;;;18.73;10.10;;;;;;;;;;5102516;28;20039;-78
2021/09/17 03:56:33;;;;;;;12.48;9.05;;;;;;;;;;5099177;28;20028;-78
2021/09/17 03:58:59;;;;;;;21.17;10.32;;;;;;;;;;5097708;28;20032;-78
2021/09/17 04:01:25;;;;;;;19.67;9.93;;;;;;;;;;5099797;28;20028;-77
2021/09/17 04:03:51;;;;;;;12.00;9.30;;;;;;;;;;5098027;28;20024;-78
2021/09/17 04:06:17;;;;;;;22.48;10.05;;;;;;;;;;5091891;28;20024;-77
2021/09/17 04:08:43;;;;;;;16.17;9.43;;;;;;;;;;5092556;28;20066;-76
2021/09/17 04:11:09;;;;;;;15.75;8.98;;;;;;;;;;5092365;28;20064;-77
2021/09/17 04:13:35;;;;;;;11.52;9.07;;;;;;;;;;5092811;28;20025;-77
2021/09/17 04:16:01;;;;;;;15.32;9.55;;;;;;;;;;5092742;28;20067;-77
2021/09/17 04:18:27;;;;;;;15.05;9.48;;;;;;;;;;5092699;28;20028;-77
2021/09/17 04:20:53;;;;;;;12.27;9.98;;;;;;;;;;5091939;28;20051;-77
2021/09/17 04:23:19;;;;;;;16.48;11.18;;;;;;;;;;5092536;28;20036;-77
2021/09/17 04:25:45;;;;;;;15.82;11.32;;;;;;;;;;5092394;28;20024;-76
2021/09/17 04:28:11;;;;;;;15.13;10.93;;;;;;;;;;5092553;28;20062;-76
2021/09/17 04:30:40;;;;;;;19.73;12.98;;;;;;;;;;5090869;28;20035;-76
2021/09/17 04:33:06;;;;;;;16.30;11.38;;;;;;;;;;5074725;28;20024;-77
2021/09/17 04:35:32;;;;;;;18.88;11.63;;;;;;;;;;5092171;28;20031;-77
2021/09/17 04:37:58;;;;;;;17.95;13.05;;;;;;;;;;5092619;28;20040;-77
2021/09/17 04:40:24;;;;;;;17.80;11.90;;;;;;;;;;5091429;28;20066;-77
2021/09/17 04:42:51;;;;;;;21.48;12.25;;;;;;;;;;5092550;28;20028;-77
2021/09/17 04:45:17;;;;;;;21.13;13.02;;;;;;;;;;5092437;28;20039;-77
2021/09/17 04:47:43;;;;;;;19.17;12.90;;;;;;;;;;5092929;28;20099;-77
2021/09/17 04:50:09;;;;;;;21.75;12.50;;;;;;;;;;5091481;28;20498;-77
2021/09/17 04:52:35;;;;;;;20.25;13.63;;;;;;;;;;5093386;28;20047;-77
2021/09/17 04:55:01;;;;;;;17.13;12.80;;;;;;;;;;5091937;28;20048;-77
2021/09/17 04:57:27;;;;;;;20.33;12.55;;;;;;;;;;5092085;28;20099;-79
2021/09/17 04:59:54;;;;;;;18.60;12.18;;;;;;;;;;5092586;28;20016;-78
2021/09/17 05:02:20;;;;;;;20.65;13.68;;;;;;;;;;5089141;28;20107;-77
2021/09/17 05:04:46;;;;;;;23.77;12.95;;;;;;;;;;5092156;28;20024;-77
2021/09/17 05:07:12;;;;;;;15.57;11.98;;;;;;;;;;5094129;28;20032;-78
2021/09/17 05:09:38;;;;;;;22.38;13.40;;;;;;;;;;5098225;28;20066;-77
2021/09/17 05:12:05;;;;;;;20.02;13.57;;;;;;;;;;5098616;28;20032;-77
2021/09/17 05:14:31;;;;;;;22.27;12.23;;;;;;;;;;5098269;28;20055;-77
2021/09/17 05:16:57;;;;;;;20.23;12.25;;;;;;;;;;5098588;28;20032;-77
2021/09/17 05:19:25;;;;;;;17.65;11.85;;;;;;;;;;5091862;28;20020;-77
2021/09/17 05:21:51;;;;;;;23.73;12.05;;;;;;;;;;5089602;28;20031;-77
2021/09/17 05:24:17;;;;;;;17.67;10.63;;;;;;;;;;5088471;28;20020;-78
2021/09/17 05:26:43;;;;;;;20.88;11.07;;;;;;;;;;5088071;28;20027;-77
2021/09/17 05:29:09;;;;;;;16.15;10.63;;;;;;;;;;5088925;28;20028;-77
2021/09/17 05:31:35;;;;;;;14.20;10.10;;;;;;;;;;5083860;28;20070;-77
2021/09/17 05:34:01;;;;;;;13.18;10.55;;;;;;;;;;5089755;28;20042;-77
2021/09/17 05:36:27;;;;;;;15.02;11.27;;;;;;;;;;5091143;28;20115;-78
2021/09/17 05:38:53;;;;;;;13.50;11.20;;;;;;;;;;5091233;28;20385;-77
2021/09/17 05:41:19;;;;;;;16.55;11.02;;;;;;;;;;5091790;28;20027;-78
2021/09/17 05:43:45;;;;;;;17.05;10.60;;;;;;;;;;5092062;28;20028;-77
2021/09/17 05:46:11;;;;;;;15.10;10.82;;;;;;;;;;5090524;28;20020;-78
2021/09/17 05:48:37;;;;;;;15.50;10.55;;;;;;;;;;5091593;28;20032;-77
2021/09/17 05:51:03;;;;;;;13.55;10.80;;;;;;;;;;5094963;28;20024;-77
2021/09/17 05:53:29;;;;;;;17.23;10.85;;;;;;;;;;5096114;28;20028;-78
2021/09/17 05:55:55;;;;;;;12.85;10.13;;;;;;;;;;5097574;28;20024;-78
2021/09/17 05:58:21;;;;;;;20.83;10.27;;;;;;;;;;5096048;28;20403;-77
2021/09/17 06:00:47;;;;;;;13.23;9.55;;;;;;;;;;5095963;28;20058;-78
2021/09/17 06:03:13;;;;;;;12.65;9.32;;;;;;;;;;5098548;28;20047;-78
2021/09/17 06:05:39;;;;;;;11.25;8.13;;;;;;;;;;5098972;28;20476;-78
2021/09/17 06:08:05;;;;;;;10.27;7.97;;;;;;;;;;5097436;28;20032;-78
2021/09/17 06:10:31;;;;;;;11.55;8.15;;;;;;;;;;5095205;28;20673;-78
2021/09/17 06:12:57;;;;;;;9.55;8.45;;;;;;;;;;5094917;28;20656;-77
2021/09/17 06:15:23;;;;;;;10.45;7.15;;;;;;;;;;5095210;28;20032;-78
2021/09/17 06:17:49;;;;;;;10.38;6.95;;;;;;;;;;5094667;28;20411;-77
2021/09/17 06:20:15;;;;;;;9.35;7.22;;;;;;;;;;5093478;28;20032;-76
2021/09/17 06:22:45;;;;;;;8.48;6.90;;;;;;;;;;5096780;28;20043;-79
2021/09/17 06:25:11;;;;;;;10.02;7.00;;;;;;;;;;5096822;28;20503;-77
2021/09/17 06:27:37;;;;;;;8.50;6.85;;;;;;;;;;5096790;28;20032;-77
2021/09/17 06:30:05;;;;;;;16.52;7.60;;;;;;;;;;5098333;28;20024;-78
2021/09/17 06:32:30;;;;;;;9.07;6.70;;;;;;;;;;5098082;28;20446;-78
2021/09/17 06:34:58;;;;;;;9.43;6.45;;;;;;;;;;5096216;28;20024;-78
2021/09/17 06:37:24;;;;;;;8.80;6.20;;;;;;;;;;5083894;28;20502;-78
2021/09/17 06:39:50;;;;;;;7.35;5.57;;;;;;;;;;5090490;28;20449;-78
2021/09/17 06:42:16;;;;;;;7.40;5.70;;;;;;;;;;5097466;28;20469;-78
2021/09/17 06:44:42;;;;;;;7.20;6.07;;;;;;;;;;5096821;28;20024;-78
2021/09/17 06:47:08;;;;;;;9.18;5.70;;;;;;;;;;5096550;28;20058;-78
2021/09/17 06:49:34;;;;;;;8.10;5.07;;;;;;;;;;5096115;28;20035;-78
2021/09/17 06:52:00;;;;;;;11.82;5.25;;;;;;;;;;5096794;28;20028;-78
2021/09/17 06:54:26;;;;;;;4.45;3.88;;;;;;;;;;5096590;28;20039;-78
2021/09/17 06:56:52;;;;;;;10.48;4.68;;;;;;;;;;5095079;28;20036;-78
2021/09/17 06:59:18;;;;;;;6.75;5.07;;;;;;;;;;5095789;28;20035;-78
2021/09/17 07:01:44;;;;;;;6.28;4.15;;;;;;;;;;5093060;28;20056;-78
2021/09/17 07:04:10;;;;;;;9.15;3.92;;;;;;;;;;5076368;28;20028;-78
2021/09/17 07:06:37;;;;;;;5.35;3.35;;;;;;;;;;5094875;28;20093;-78
2021/09/17 07:09:03;;;;;;;4.57;2.90;;;;;;;;;;5095836;28;20073;-78
2021/09/17 07:11:29;;;;;;;4.15;3.17;;;;;;;;;;5100559;28;20047;-78
2021/09/17 07:13:55;;;;;;;8.30;3.38;;;;;;;;;;5096555;28;20028;-78
2021/09/17 07:16:21;;;;;;;8.70;3.70;;;;;;;;;;5095635;28;20103;-78
2021/09/17 07:18:48;;;;;;;8.40;3.55;;;;;;;;;;5099194;28;20036;-77
2021/09/17 07:21:14;;;;;;;3.40;3.10;;;;;;;;;;5095767;28;20027;-78
2021/09/17 07:23:40;;;;;;;7.82;2.92;;;;;;;;;;5095374;28;20044;-78
2021/09/17 07:26:06;;;;;;;4.57;3.00;;;;;;;;;;5095577;28;20020;-78
2021/09/17 07:28:33;;;;;;;4.75;2.70;;;;;;;;;;5095313;28;20032;-78
2021/09/17 07:30:59;;;;;;;6.68;2.55;;;;;;;;;;5091347;28;20020;-78
2021/09/17 07:33:25;;;;;;;3.17;2.40;;;;;;;;;;5095275;28;20451;-78
2021/09/17 07:35:51;;;;;;;2.92;2.42;;;;;;;;;;5095190;28;20031;-79
2021/09/17 07:38:17;;;;;;;5.57;2.83;;;;;;;;;;5095255;28;20489;-79
2021/09/17 07:40:43;;;;;;;5.47;2.75;;;;;;;;;;5095079;28;20048;-78
2021/09/17 07:43:09;;;;;;;3.78;2.60;;;;;;;;;;5096933;28;20020;-79
2021/09/17 07:45:35;;;;;;;5.07;2.33;;;;;;;;;;5097957;28;20073;-79
2021/09/17 07:48:03;;;;;;;5.72;2.72;;;;;;;;;;5095893;28;20442;-76
2021/09/17 07:50:29;;;;;;;5.75;2.63;;;;;;;;;;5096495;28;20058;-79
2021/09/17 07:52:55;;;;;;;6.75;2.60;;;;;;;;;;5096363;28;20099;-78
2021/09/17 07:55:21;;;;;;;8.32;2.55;;;;;;;;;;5097644;28;20039;-79
2021/09/17 07:57:47;;;;;;;5.32;2.53;;;;;;;;;;5097254;28;20036;-79
2021/09/17 08:00:15;;;;;;;6.95;2.60;;;;;;;;;;5096987;28;20027;-79
2021/09/17 08:02:42;;;;;;;8.00;2.28;;;;;;;;;;5085583;28;20021;-79
2021/09/17 08:05:09;;;;;;;9.13;2.60;;;;;;;;;;5076694;28;20020;-79
2021/09/17 08:07:35;;;;;;;4.20;2.10;;;;;;;;;;5077072;28;20020;-79
2021/09/17 08:10:01;;;;;;;6.50;2.03;;;;;;;;;;5081424;28;20035;-78
2021/09/17 08:12:27;;;;;;;3.72;2.45;;;;;;;;;;5096178;28;20263;-79
2021/09/17 08:14:53;;;;;;;3.28;2.10;;;;;;;;;;5096591;28;20032;-79
2021/09/17 08:17:19;;;;;;;4.10;2.05;;;;;;;;;;5095153;28;20035;-79
2021/09/17 08:19:45;;;;;;;11.98;2.70;;;;;;;;;;5094842;28;20028;-79
2021/09/17 08:22:11;;;;;;;4.65;2.65;;;;;;;;;;5101925;28;20484;-79
2021/09/17 08:24:37;;;;;;;8.00;3.67;;;;;;;;;;5106731;28;20035;-79
2021/09/17 08:27:03;;;;;;;13.30;5.47;;;;;;;;;;5105613;28;20099;-79
2021/09/17 08:29:29;;;;;;;9.05;3.55;;;;;;;;;;5097746;28;20027;-79
2021/09/17 08:31:56;;;;;;;7.22;3.30;;;;;;;;;;5096661;28;20028;-79
2021/09/17 08:34:22;;;;;;;6.15;3.03;;;;;;;;;;5097290;28;20569;-79
2021/09/17 08:36:48;;;;;;;5.07;2.80;;;;;;;;;;5095556;28;20024;-79
2021/09/17 08:39:15;;;;;;;9.25;2.30;;;;;;;;;;5094428;28;20068;-79
2021/09/17 08:41:42;;;;;;;4.13;2.60;;;;;;;;;;5095391;28;20484;-80
2021/09/17 08:44:08;;;;;;;4.10;2.55;;;;;;;;;;5095833;28;20020;-79
2021/09/17 08:46:37;;;;;;;7.13;2.50;;;;;;;;;;5096218;28;20495;-80
2021/09/17 08:49:04;;;;;;;5.30;2.83;;;;;;;;;;5093862;28;20126;-79
2021/09/17 08:51:30;;;;;;;5.13;2.63;;;;;;;;;;5094868;28;20055;-80
2021/09/17 08:53:56;;;;;;;3.35;2.60;;;;;;;;;;5095545;28;20500;-80
2021/09/17 08:56:22;;;;;;;6.85;3.00;;;;;;;;;;5095447;28;20049;-80
2021/09/17 08:58:48;;;;;;;5.38;3.22;;;;;;;;;;5094456;28;20066;-79
2021/09/17 09:01:27;;;;;;;8.05;3.78;;;;;;;;;;5083230;28;20435;-77
2021/09/17 09:03:57;;;;;;;4.28;2.58;;;;;;;;;;5076467;28;20043;-77
2021/09/17 09:06:23;;;;;;;7.07;3.20;;;15.70;99.90;;;;;;5091875;28;20024;-78
2021/09/17 09:08:50;;;;;;;6.68;2.78;;;21.50;99.90;;;;;;5091764;28;20107;-78
2021/09/17 09:11:22;;;;;;;5.05;3.15;;;21.70;99.90;;;;;;5091847;28;20040;-78
2021/09/17 09:14:10;;;;;;;9.55;4.63;;;21.70;99.90;;;;;;5092443;28;20028;-78
2021/09/17 09:16:37;;;;;;;6.85;4.57;;;;;;;;;;5093886;28;20028;-80
2021/09/17 09:19:22;;;;;;;9.85;5.50;;;;;;;;;;5093780;28;20039;-79
2021/09/17 09:21:49;;;;;;;6.50;4.40;;;;;;;;;;5094455;28;20032;-79
2021/09/17 09:24:20;;;;;;;5.57;3.40;;;;;;;;;;5095199;28;20067;-79
2021/09/17 09:26:46;;;;;;;6.38;3.13;;;;;;;;;;5080522;28;20035;-79
2021/09/17 09:29:25;;;;;;;6.53;2.90;;;;;;;;;;5097683;28;20032;-80
2021/09/17 09:31:51;;;;;;;7.57;3.95;;;;;;;;;;5098253;28;20045;-79
2021/09/17 09:34:18;;;;;;;7.75;3.20;;;;;;;;;;5098223;28;20454;-80
2021/09/17 09:36:44;;;;;;;6.20;2.88;;;;;;;;;;5097208;28;20322;-78
2021/09/17 09:39:10;;;;;;;7.68;4.32;;;;;;;;;;5095226;28;20153;-78
2021/09/17 09:41:36;;;;;;;8.43;3.35;;;;;;;;;;5096610;28;20024;-79
2021/09/17 09:44:03;;;;;;;6.93;3.05;;;;;;;;;;5104445;28;20091;-79
2021/09/17 09:46:29;;;;;;;6.63;4.38;;;;;;;;;;5097248;28;20024;-78
2021/09/17 09:49:09;;;;;;;6.43;3.47;;;;;;;;;;5096613;28;20024;-79
2021/09/17 09:51:36;;;;;;;11.90;4.78;;;;;;;;;;5097852;28;20020;-79
2021/09/17 09:54:04;;;;;;;8.05;4.05;;;;;;;;;;5098037;28;20028;-79
2021/09/17 09:56:30;;;;;;;6.22;3.40;;;;;;;;;;5097991;28;20082;-79
2021/09/17 09:58:56;;;;;;;9.52;5.10;;;;;;;;;;5096478;28;20032;-79
2021/09/17 10:01:23;;;;;;;6.40;3.70;;;;;;;;;;5096752;28;20032;-78
2021/09/17 10:03:52;;;;;;;9.07;3.85;;;;;;;;;;5075981;28;20565;-78
2021/09/17 10:06:18;;;;;;;8.55;3.55;;;;;;;;;;5081438;28;20116;-78
2021/09/17 10:08:46;;;;;;;6.72;2.95;;;;;;;;;;5096454;28;20032;-77
2021/09/17 10:11:12;;;;;;;8.45;4.05;;;;;;;;;;5076601;28;20492;-78
2021/09/17 10:13:38;;;;;;;7.28;4.25;;;;;;;;;;5095288;28;20043;-78
2021/09/17 10:16:05;;;;;;;5.82;4.75;;;;;;;;;;5075744;28;20401;-78
2021/09/17 10:18:31;;;;;;;8.45;5.22;;;;;;;;;;5074827;28;20091;-78
2021/09/17 10:20:57;;;;;;;9.00;5.15;;;;;;;;;;5076435;28;20502;-78
2021/09/17 10:23:24;;;;;;;9.60;4.57;;;;;;;;;;5092284;28;20367;-78
2021/09/17 10:26:00;;;;;;;5.68;4.00;;;;;;;;;;5094009;28;20028;-78
2021/09/17 10:28:26;;;;;;;9.85;3.88;;;;;;;;;;5094766;28;20026;-79
2021/09/17 10:30:52;;;;;;;9.73;3.97;;;;;;;;;;5091566;28;20110;-78
2021/09/17 10:33:25;;;;;;;6.10;4.03;;;;;;;;;;5094301;28;20038;-78
2021/09/17 10:35:51;;;;;;;7.28;4.50;;;22.10;99.90;;;;;;5097190;28;20032;-77
2021/09/17 10:38:20;;;;;;;7.13;3.53;;;;;;;;;;5095609;28;20057;-78
2021/09/17 10:41:02;;;;;;;7.30;4.43;;;;;;;;;;5091436;28;20080;-78
2021/09/17 10:43:28;;;;;;;13.90;4.80;;;;;;;;;;5092228;28;20039;-78
2021/09/17 10:45:55;;;;;;;7.13;4.05;;;;;;;;;;5093818;28;20481;-77
2021/09/17 10:48:23;;;;;;;10.30;5.15;;;;;;;;;;5094153;28;20032;-78
2021/09/17 10:50:49;;;;;;;6.80;4.45;;;;;;;;;;5092945;28;20085;-78
2021/09/17 10:53:35;;;;;;;10.18;4.13;;;;;;;;;;5094691;28;20099;-78
2021/09/17 10:56:02;;;;;;;6.75;3.75;;;;;;;;;;5092160;28;20028;-78
2021/09/17 10:58:29;;;;;;;9.10;4.95;;;;;;;;;;5089673;28;20119;-78
2021/09/17 11:00:58;;;;;;;9.77;4.72;;;;;;;;;;5093299;28;20087;-78
2021/09/17 11:03:36;;;;;;;8.13;3.75;;;26.10;95.90;;;;;;5076343;28;20531;-78
2021/09/17 11:06:25;;;;;;;7.20;3.97;;;28.30;85.20;;;;;;5073403;28;20028;-78
2021/09/17 11:08:56;;;;;;;5.43;3.75;;;27.70;84.70;;;;;;5072923;28;20031;-78
2021/09/17 11:11:34;;;;;;;5.90;3.13;;;27.60;83.80;;;;;;5089827;28;20043;-78
2021/09/17 11:14:03;;;;;;;7.45;3.40;;;27.50;83.90;;;;;;5093491;28;20020;-78
2021/09/17 11:16:30;;;;;;;7.38;4.28;;;27.60;83.00;;;;;;5093288;28;20109;-78
2021/09/17 11:19:09;;;;;;;6.30;3.85;;;27.70;80.10;;;;;;5072555;28;20025;-78
2021/09/17 11:21:35;;;;;;;8.23;3.97;;;28.20;82.30;;;;;;5073468;28;20032;-78
2021/09/17 11:24:02;;;;;;;4.65;3.35;;;28.90;79.50;;;;;;5076578;28;20050;-78
2021/09/17 11:26:31;;;;;;;5.82;3.67;;;29.80;77.00;;;;;;5088838;28;20066;-78
2021/09/17 11:29:07;;;;;;;5.78;3.10;;;29.80;72.00;;;;;;5074937;28;20065;-78
2021/09/17 11:31:35;;;;;;;7.57;3.28;;;29.40;75.10;;;;;;5079505;28;20055;-78
2021/09/17 11:34:07;;;;;;;5.10;3.30;;;30.40;73.20;;;;;;5089292;28;20032;-79
2021/09/17 11:36:39;;;;;;;6.32;3.70;;;30.70;68.70;;;;;;5090439;28;20222;-78
2021/09/17 11:39:23;;;;;;;5.00;2.47;;;;;;;;;;5089226;28;20502;-78
2021/09/17 11:41:51;;;;;;;4.43;2.50;;;;;;;;;;5069856;28;20030;-78
2021/09/17 11:44:36;;;;;;;5.20;2.40;;;;;;;;;;5069889;28;20027;-80
2021/09/17 11:47:04;;;;;;;6.75;3.00;;;;;;;;;;5088912;28;20028;-80
2021/09/17 11:49:31;;;;;;;3.03;2.00;;;;;;;;;;5088749;28;20027;-79
2021/09/17 11:52:01;;;;;;;3.75;1.95;;;;;;;;;;5090407;28;20039;-79
2021/09/17 11:54:27;;;;;;;2.92;1.70;;;;;;;;;;5092187;28;20468;-80
2021/09/17 11:57:00;;;;;;;5.32;2.35;;;30.40;67.90;;;;;;5086893;28;20063;-80
2021/09/17 11:59:37;;;;;;;3.85;2.10;;;27.80;64.50;;;;;;5090636;28;20039;-80
2021/09/17 12:02:22;;;;;;;4.25;2.17;;;27.80;66.00;;;;;;5090062;28;20020;-80
2021/09/17 12:05:01;;;;;;;4.45;2.50;;;28.20;66.10;;;;;;5090721;28;20524;-80
2021/09/17 12:07:28;;;;;;;4.45;1.90;;;29.40;63.60;;;;;;5090293;28;20039;-80
2021/09/17 12:09:55;;;;;;;4.28;1.90;;;30.50;62.40;;;;;;5090221;28;20068;-80
2021/09/17 12:12:35;;;;;;;5.85;1.77;;;30.60;61.60;;;;;;5090757;28;20032;-79
2021/09/17 12:15:00;;;;;;;4.53;2.00;;;29.80;60.30;;;;;;5089962;28;20031;-79
2021/09/17 12:17:26;;;;;;;4.93;1.80;;;30.00;64.80;;;;;;5089110;28;20039;-79
2021/09/17 12:19:54;;;;;;;5.28;2.35;;;29.90;64.20;;;;;;5089120;28;20066;-79
2021/09/17 12:22:35;;;;;;;3.78;2.17;;;29.30;63.60;;;;;;5090157;28;20523;-79
2021/09/17 12:25:12;;;;;;;5.78;2.50;;;28.80;65.40;;;;;;5091209;28;20087;-79
2021/09/17 12:27:44;;;;;;;5.90;2.00;;;27.90;65.70;;;;;;5086930;28;20024;-78
2021/09/17 12:30:16;;;;;;;4.10;1.75;;;27.00;67.90;;;;;;5070682;28;20028;-78
2021/09/17 12:32:43;;;;;;;3.38;1.80;;;25.90;67.60;;;;;;5085823;28;20059;-78
2021/09/17 12:35:14;;;;;;;4.95;1.77;;;25.00;72.00;;;;;;5090190;28;20047;-79
2021/09/17 12:37:52;;;;;;;3.08;1.90;;;24.60;71.10;;;;;;5089772;28;20031;-79
2021/09/17 12:40:21;;;;;;;5.32;2.00;;;24.20;72.30;;;;;;5090214;28;20492;-78
2021/09/17 12:42:58;;;;;;;8.40;2.10;;;24.00;72.20;;;;;;5089646;28;20413;-79
2021/09/17 12:45:25;;;;;;;5.70;1.75;;;23.80;75.60;;;;;;5089073;28;20112;-79
2021/09/17 12:47:53;;;;;;;5.30;1.73;;;24.10;73.10;;;;;;5089233;28;20024;-80
2021/09/17 12:50:26;;;;;;;3.75;2.17;;;25.40;74.20;;;;;;5089573;28;20084;-80
2021/09/17 12:52:52;;;;;;;5.30;2.35;;;26.70;73.40;;;;;;5090785;28;20028;-79
2021/09/17 12:55:29;;;;;;;4.43;2.13;;;27.20;74.00;;;;;;5089335;28;20120;-79
2021/09/17 12:58:06;;;;;;;6.72;1.90;;;28.20;70.70;;;;;;5088572;28;20051;-79
2021/09/17 13:00:34;;;;;;;4.32;1.85;;;28.60;71.20;;;;;;5087613;28;20381;-78
2021/09/17 13:03:04;;;;;;;3.50;1.83;;;28.70;64.50;;;;;;5088418;28;20093;-77
2021/09/17 13:05:31;;;;;;;8.50;2.20;;;28.30;67.80;;;;;;5087413;28;20026;-78
2021/09/17 13:07:57;;;;;;;7.65;2.10;;;28.50;65.70;;;;;;5087361;28;20034;-78
2021/09/17 13:10:23;;;;;;;2.97;1.75;;;28.50;65.80;;;;;;5087639;28;20030;-78
2021/09/17 13:12:49;;;;;;;4.78;2.10;;;28.50;66.30;;;;;;5087786;28;20017;-78
2021/09/17 13:15:14;;;;;;;4.43;2.30;;;28.60;66.50;;;;;;5087968;28;20431;-78
2021/09/17 13:17:40;;;;;;;3.40;1.40;;;29.30;65.00;;;;;;5088222;28;20490;-78
2021/09/17 13:20:09;;;;;;;3.97;1.60;;;30.10;63.10;;;;;;5087400;28;20619;-78
2021/09/17 13:22:35;;;;;;;2.33;1.35;;;30.70;61.60;;;;;;5086775;28;20044;-78
2021/09/17 13:25:01;;;;;;;2.17;1.60;;;31.20;61.30;;;;;;5087729;28;20400;-78
2021/09/17 13:27:26;;;;;;;2.40;1.00;;;30.90;61.10;;;;;;5084777;28;20032;-78
2021/09/17 13:29:52;;;;;;;2.22;0.90;;;30.40;56.00;;;;;;5085010;28;20496;-78
2021/09/17 13:32:18;;;;;;;2.35;0.90;;;30.30;55.10;;;;;;5086876;28;20035;-78
2021/09/17 13:34:43;;;;;;;2.72;0.73;;;30.50;57.30;;;;;;5088846;28;20071;-78
2021/09/17 13:37:09;;;;;;;2.67;1.00;;;31.20;54.00;;;;;;5072421;28;20551;-78
2021/09/17 13:39:34;;;;;;;3.55;0.90;;;31.80;55.90;;;;;;5072346;28;20077;-78
2021/09/17 13:42:00;;;;;;;1.70;0.63;;;32.40;54.90;;;;;;5086760;28;20115;-78
2021/09/17 13:44:26;;;;;;;1.88;0.65;;;33.10;51.80;;;;;;5089329;28;20028;-78
2021/09/17 13:46:51;;;;;;;1.65;0.65;;;33.40;51.20;;;;;;5092365;28;20032;-78
2021/09/17 13:49:17;;;;;;;2.17;1.00;;;33.70;51.20;;;;;;5089113;28;20063;-78
2021/09/17 13:51:43;;;;;;;1.58;0.80;;;34.10;51.00;;;;;;5088653;28;20077;-78
2021/09/17 13:54:08;;;;;;;3.65;1.00;;;34.80;52.10;;;;;;5087562;28;20028;-77
2021/09/17 13:56:34;;;;;;;1.70;1.10;;;33.60;50.80;;;;;;5087427;28;20039;-79
2021/09/17 13:58:59;;;;;;;1.52;0.77;;;33.40;51.30;;;;;;5087701;28;20937;-78
2021/09/17 14:01:25;;;;;;;2.80;0.93;;;32.40;50.80;;;;;;5087135;28;20040;-78
2021/09/17 14:03:51;;;;;;;4.00;1.00;;;31.30;53.50;;;;;;5068594;28;20055;-78
2021/09/17 14:06:16;;;;;;;2.13;1.27;;;32.60;51.60;;;;;;5068246;28;20252;-78
2021/09/17 14:08:42;;;;;;;2.63;1.10;;;33.20;50.40;;;;;;5066963;28;20025;-78